Time;durP1;ratioP1;P1;durP2;ratioP2;P2;SDS_P1;SDS_P2;PMS_P1;PMS_P2;Temp;Humidity;BMP_temperature;BMP_pressure;BME280_temperature;BME280_humidity;BME280_pressure;Samples;Min_cycle;Max_cycle;Signal;HPM_P1;HPM_P2
2024/01/13 00:01:39;;;;;;;5.03;3.30;;;;;;;;;;5118146;28;20235;-83
2024/01/13 00:04:07;;;;;;;4.73;2.37;;;;;;;;;;5112650;28;20717;-84
2024/01/13 00:06:34;;;;;;;6.37;3.13;;;;;;;;;;5131998;27;20283;-83
2024/01/13 00:09:03;;;;;;;6.47;4.70;;;;;;;;;;5135664;28;20225;-83
2024/01/13 00:11:30;;;;;;;4.17;3.87;;;;;;;;;;5116338;28;20690;-82
2024/01/13 00:13:59;;;;;;;4.20;2.67;;;;;;;;;;5114393;28;20220;-83
2024/01/13 00:16:27;;;;;;;3.60;2.77;;;;;;;;;;5108476;28;20198;-82
2024/01/13 00:18:58;;;;;;;3.30;2.97;;;;;;;;;;5094960;28;20208;-84
2024/01/13 00:21:27;;;;;;;4.70;3.00;;;;;;;;;;5103255;28;20671;-83
2024/01/13 00:23:56;;;;;;;4.50;3.27;;;;;;;;;;5111899;28;20603;-83
2024/01/13 00:26:27;;;;;;;1.60;1.50;;;;;;;;;;5114023;28;20190;-82
2024/01/13 00:28:57;;;;;;;10.60;4.03;;;;;;;;;;5109273;28;20713;-82
2024/01/13 00:31:26;;;;;;;13.37;4.33;;;;;;;;;;5092872;28;20190;-82
2024/01/13 00:33:57;;;;;;;2.20;1.67;;;;;;;;;;5096362;28;20276;-82
2024/01/13 00:36:26;;;;;;;5.50;2.47;;;;;;;;;;5098764;28;20206;-83
2024/01/13 00:38:53;;;;;;;3.63;3.30;;;;;;;;;;5094429;28;20289;-84
2024/01/13 00:41:27;;;;;;;3.97;3.53;;;;;;;;;;5094083;28;20202;-83
2024/01/13 00:44:03;;;;;;;14.87;3.10;;;;;;;;;;5092894;28;20224;-84
2024/01/13 00:46:35;;;;;;;2.20;2.10;;;;;;;;;;5093258;28;20194;-83
2024/01/13 00:49:02;;;;;;;5.87;2.70;;;;;;;;;;5097687;28;20185;-82
2024/01/13 00:51:30;;;;;;;9.40;4.00;;;;;;;;;;5093300;28;20205;-83
2024/01/13 00:53:57;;;;;;;12.30;4.37;;;;;;;;;;5102376;28;20193;-82
2024/01/13 00:56:26;;;;;;;9.67;3.87;;;;;;;;;;5117702;28;20186;-84
2024/01/13 00:58:54;;;;;;;2.80;2.23;;;;;;;;;;5121932;28;20201;-82
2024/01/13 01:01:22;;;;;;;7.23;3.47;;;;;;;;;;5114808;28;20250;-83
2024/01/13 01:03:52;;;;;;;3.50;2.53;;;;;;;;;;5112802;28;20282;-83
2024/01/13 01:06:22;;;;;;;9.63;3.73;;;;;;;;;;5111022;28;20727;-84
2024/01/13 01:08:50;;;;;;;6.80;4.17;;;;;;;;;;5113100;28;20221;-82
2024/01/13 01:11:21;;;;;;;4.63;3.00;;;;;;;;;;5113080;28;20205;-83
2024/01/13 01:13:51;;;;;;;7.47;4.33;;;;;;;;;;5112982;28;20348;-83
2024/01/13 01:16:19;;;;;;;6.70;3.73;;;;;;;;;;5112903;28;20201;-83
2024/01/13 01:18:46;;;;;;;4.53;3.20;;;;;;;;;;5112942;28;20208;-82
2024/01/13 01:21:17;;;;;;;2.17;2.03;;;;;;;;;;5111906;28;20584;-84
2024/01/13 01:23:44;;;;;;;4.33;3.33;;;;;;;;;;5113137;28;20208;-83
2024/01/13 01:26:12;;;;;;;7.67;3.03;;;;;;;;;;5113500;28;20217;-82
2024/01/13 01:28:39;;;;;;;7.30;3.27;;;;;;;;;;5112140;28;20292;-83
2024/01/13 01:31:18;;;;;;;3.20;3.00;;;;;;;;;;5115797;28;20223;-82
2024/01/13 01:33:46;;;;;;;5.90;3.97;;;;;;;;;;5115538;28;20303;-82
2024/01/13 01:36:13;;;;;;;6.47;3.47;;;;;;;;;;5112449;28;20229;-84
2024/01/13 01:38:42;;;;;;;5.00;4.27;;;;;;;;;;5113285;28;20197;-84
2024/01/13 01:41:11;;;;;;;9.30;2.60;;;;;;;;;;5111848;28;20201;-84
2024/01/13 01:43:38;;;;;;;16.43;4.90;;;;;;;;;;5113133;28;20228;-83
2024/01/13 01:46:05;;;;;;;4.43;3.50;;;;;;;;;;5114324;28;20227;-83
2024/01/13 01:48:35;;;;;;;8.60;4.60;;;;;;;;;;5113104;28;20246;-83
2024/01/13 01:51:02;;;;;;;5.03;3.60;;;;;;;;;;5113197;28;20227;-84
2024/01/13 01:53:30;;;;;;;4.87;3.13;;;;;;;;;;5113368;28;20743;-82
2024/01/13 01:56:14;;;;;;;9.80;3.73;;;;;;;;;;5113579;28;20979;-82
2024/01/13 01:58:45;;;;;;;9.90;3.50;;;;;;;;;;5113893;28;20205;-82
2024/01/13 02:01:12;;;;;;;7.63;3.47;;;;;;;;;;5113102;28;20208;-83
2024/01/13 02:03:40;;;;;;;9.30;4.53;;;;;;;;;;5112149;28;20235;-83
2024/01/13 02:06:08;;;;;;;4.97;3.53;;;;;;;;;;5113254;28;20269;-82
2024/01/13 02:08:35;;;;;;;8.37;5.27;;;;;;;;;;5113886;28;20320;-83
2024/01/13 02:11:04;;;;;;;3.87;2.97;;;;;;;;;;5117303;28;20272;-83
2024/01/13 02:13:32;;;;;;;7.07;3.70;;;;;;;;;;5116330;28;20224;-82
2024/01/13 02:16:01;;;;;;;13.40;4.60;;;;;;;;;;5115314;28;20244;-83
2024/01/13 02:18:28;;;;;;;7.63;4.13;;;;;;;;;;5116343;28;20536;-82
2024/01/13 02:20:56;;;;;;;3.13;2.17;;;;;;;;;;5116692;28;20209;-83
2024/01/13 02:23:25;;;;;;;18.33;6.47;;;;;;;;;;5116690;28;20239;-84
2024/01/13 02:25:52;;;;;;;7.90;3.87;;;;;;;;;;5118040;27;20528;-83
2024/01/13 02:28:23;;;;;;;5.87;3.40;;;;;;;;;;5118260;28;20181;-83
2024/01/13 02:30:50;;;;;;;4.30;3.90;;;;;;;;;;5118749;28;20252;-82
2024/01/13 02:33:18;;;;;;;8.17;4.00;;;;;;;;;;5118376;28;20190;-83
2024/01/13 02:35:45;;;;;;;10.07;5.10;;;;;;;;;;5117851;28;20276;-83
2024/01/13 02:38:14;;;;;;;4.30;3.67;;;;;;;;;;5117549;28;20256;-82
2024/01/13 02:40:42;;;;;;;2.97;2.77;;;;;;;;;;5116703;28;20217;-83
2024/01/13 02:43:11;;;;;;;5.50;5.00;;;;;;;;;;5117521;28;20267;-83
2024/01/13 02:45:39;;;;;;;11.40;3.53;;;;;;;;;;5117523;28;20559;-83
2024/01/13 02:48:10;;;;;;;5.53;3.57;;;;;;;;;;5117209;28;20208;-83
2024/01/13 02:50:41;;;;;;;13.67;5.40;;;;;;;;;;5116753;28;20330;-83
2024/01/13 02:53:10;;;;;;;7.47;5.03;;;;;;;;;;5116552;28;20221;-83
2024/01/13 02:55:39;;;;;;;5.37;3.83;;;;;;;;;;5117569;28;20259;-84
2024/01/13 02:58:08;;;;;;;9.90;3.93;;;;;;;;;;5118162;27;20198;-83
2024/01/13 03:00:35;;;;;;;3.73;2.60;;;;;;;;;;5118497;28;20257;-82
2024/01/13 03:03:03;;;;;;;14.37;3.73;;;;;;;;;;5117965;28;20216;-83
2024/01/13 03:05:30;;;;;;;8.53;4.13;;;;;;;;;;5116862;28;20193;-83
2024/01/13 03:08:01;;;;;;;10.13;3.47;;;;;;;;;;5117178;28;20249;-82
2024/01/13 03:10:39;;;;;;;4.97;3.97;;;;;;;;;;5117452;28;20207;-83
2024/01/13 03:13:17;;;;;;;8.73;3.17;;;;;;;;;;5116679;28;20209;-83
2024/01/13 03:15:44;;;;;;;16.80;4.70;;;;;;;;;;5117341;28;20212;-82
2024/01/13 03:18:12;;;;;;;8.97;5.00;;;;;;;;;;5115711;28;20285;-84
2024/01/13 03:20:41;;;;;;;7.43;3.17;;;;;;;;;;5116773;28;20229;-83
2024/01/13 03:23:09;;;;;;;10.17;3.27;;;;;;;;;;5116507;28;20239;-83
2024/01/13 03:25:40;;;;;;;5.97;4.10;;;;;;;;;;5116664;28;20748;-83
2024/01/13 03:28:07;;;;;;;9.53;4.50;;;;;;;;;;5117452;28;20201;-83
2024/01/13 03:30:42;;;;;;;5.37;3.27;;;;;;;;;;5116919;28;20673;-82
2024/01/13 03:33:10;;;;;;;6.50;3.13;;;;;;;;;;5115797;28;20661;-83
2024/01/13 03:35:42;;;;;;;5.53;4.87;;;;;;;;;;5116846;28;20208;-83
2024/01/13 03:38:11;;;;;;;11.43;6.23;;;;;;;;;;5116988;28;20198;-83
2024/01/13 03:40:39;;;;;;;10.93;5.73;;;;;;;;;;5115460;28;20227;-84
2024/01/13 03:43:07;;;;;;;15.20;6.57;;;;;;;;;;5116759;28;20220;-83
2024/01/13 03:45:38;;;;;;;9.40;5.10;;;;;;;;;;5117106;28;20507;-83
2024/01/13 03:48:07;;;;;;;4.30;3.77;;;;;;;;;;5117340;28;20782;-83
2024/01/13 03:50:35;;;;;;;5.67;5.10;;;;;;;;;;5116416;28;20325;-83
2024/01/13 03:53:02;;;;;;;8.87;3.33;;;;;;;;;;5114914;28;20197;-82
2024/01/13 03:55:30;;;;;;;14.97;5.70;;;;;;;;;;5115852;28;20207;-83
2024/01/13 03:58:13;;;;;;;7.10;2.33;;;;;;;;;;5115789;28;20229;-82
2024/01/13 04:00:54;;;;;;;5.60;3.87;;;;;;;;;;5115597;28;20268;-83
2024/01/13 04:03:30;;;;;;;9.27;4.93;;;;;;;;;;5117450;28;20208;-83
2024/01/13 04:06:05;;;;;;;11.23;5.93;;;;;;;;;;5119102;28;20201;-82
2024/01/13 04:08:50;;;;;;;4.90;3.53;;;;;;;;;;5132865;27;20216;-83
2024/01/13 04:11:20;;;;;;;5.70;4.60;;;;;;;;;;5127108;28;20642;-82
2024/01/13 04:13:48;;;;;;;7.83;5.00;;;;;;;;;;5115161;28;20193;-82
2024/01/13 04:16:18;;;;;;;8.07;4.47;;;;;;;;;;5114541;28;20201;-82
2024/01/13 04:18:52;;;;;;;7.30;4.67;;;;;;;;;;5113583;28;20272;-83
2024/01/13 04:24:11;;;;;;;9.27;4.87;;;;;;;;;;5112835;28;20228;-83
2024/01/13 04:26:44;;;;;;;8.23;5.00;;;;;;;;;;5116392;28;20189;-82
2024/01/13 04:29:17;;;;;;;3.73;3.43;;;;;;;;;;5116481;28;20207;-82
2024/01/13 04:31:44;;;;;;;9.23;5.47;;;;;;;;;;5116001;28;20201;-83
2024/01/13 04:34:19;;;;;;;17.03;6.77;;;;;;;;;;5118364;28;20197;-83
2024/01/13 04:36:49;;;;;;;7.20;4.40;;;;;;;;;;5116496;28;20227;-84
2024/01/13 04:39:16;;;;;;;6.87;4.57;;;;;;;;;;5114382;28;20201;-84
2024/01/13 04:41:43;;;;;;;9.77;3.60;;;;;;;;;;5114475;28;20208;-82
2024/01/13 04:44:12;;;;;;;11.47;3.90;;;;;;;;;;5117979;28;20271;-84
2024/01/13 04:46:40;;;;;;;11.20;3.60;;;;;;;;;;5116105;28;20197;-83
2024/01/13 04:49:10;;;;;;;4.50;3.23;;;;;;;;;;5116239;28;20276;-83
2024/01/13 04:51:58;;;;;;;9.40;4.07;;;;;;;;;;5116366;28;20357;-83
2024/01/13 04:54:29;;;;;;;4.53;2.67;;;;;;;;;;5116592;28;20185;-81
2024/01/13 04:56:56;;;;;;;2.97;2.63;;;;;;;;;;5115855;28;20190;-83
2024/01/13 04:59:23;;;;;;;10.90;4.90;;;;;;;;;;5116328;28;20208;-84
2024/01/13 05:01:56;;;;;;;9.70;3.60;;;;;;;;;;5114844;28;20193;-83
2024/01/13 05:04:26;;;;;;;8.20;4.20;;;;;;;;;;5116757;28;20209;-83
2024/01/13 05:06:57;;;;;;;5.93;3.17;;;;;;;;;;5116420;28;20201;-82
2024/01/13 05:09:24;;;;;;;3.43;3.13;;;;;;;;;;5115878;28;20240;-82
2024/01/13 05:11:53;;;;;;;2.70;2.13;;;;;;;;;;5119263;28;20189;-83
2024/01/13 05:14:27;;;;;;;4.93;3.47;;;;;;;;;;5119318;28;20734;-83
2024/01/13 05:16:55;;;;;;;9.27;3.10;;;;;;;;;;5114018;28;20206;-83
2024/01/13 05:19:23;;;;;;;3.83;3.10;;;;;;;;;;5115314;28;20209;-82
2024/01/13 05:21:53;;;;;;;12.03;3.87;;;;;;;;;;5114358;28;20611;-82
2024/01/13 05:24:28;;;;;;;3.67;3.37;;;;;;;;;;5113681;28;20232;-83
2024/01/13 05:26:59;;;;;;;3.67;3.37;;;;;;;;;;5115833;28;20193;-82
2024/01/13 05:29:34;;;;;;;5.30;3.20;;;;;;;;;;5115163;28;20189;-83
2024/01/13 05:32:02;;;;;;;2.53;2.33;;;;;;;;;;5115800;28;20196;-83
2024/01/13 05:34:31;;;;;;;5.30;3.47;;;;;;;;;;5115932;28;20213;-82
2024/01/13 05:36:59;;;;;;;7.43;3.03;;;;;;;;;;5115888;28;20201;-82
2024/01/13 05:39:27;;;;;;;6.97;2.37;;;;;;;;;;5114734;28;20273;-83
2024/01/13 05:42:03;;;;;;;3.97;3.37;;;;;;;;;;5115159;28;20201;-83
2024/01/13 05:44:34;;;;;;;6.13;3.43;;;;;;;;;;5118603;28;20228;-82
2024/01/13 05:47:08;;;;;;;4.07;3.00;;;;;;;;;;5120182;28;20207;-82
2024/01/13 05:49:51;;;;;;;4.90;4.40;;;;;;;;;;5119479;28;20263;-83
2024/01/13 05:52:22;;;;;;;9.90;5.07;;;;;;;;;;5119904;28;20185;-82
2024/01/13 05:54:51;;;;;;;8.00;2.77;;;;;;;;;;5116787;28;20213;-84
2024/01/13 05:57:25;;;;;;;2.60;2.40;;;;;;;;;;5118554;28;20198;-82
2024/01/13 06:00:13;;;;;;;5.50;3.90;;;;;;;;;;5118752;28;20185;-82
2024/01/13 06:03:00;;;;;;;5.83;2.43;;;;;;;;;;5116994;28;20212;-82
2024/01/13 06:05:35;;;;;;;2.40;1.77;;;;;;;;;;5103062;28;20244;-83
2024/01/13 06:08:07;;;;;;;8.07;3.70;;;;;;;;;;5097489;28;20278;-83
2024/01/13 06:10:53;;;;;;;5.20;3.00;;;;;;;;;;5104775;28;20194;-82
2024/01/13 06:13:21;;;;;;;5.83;2.77;;;;;;;;;;5098010;28;20217;-83
2024/01/13 06:15:52;;;;;;;9.13;2.97;;;;;;;;;;5098161;28;20213;-83
2024/01/13 06:18:19;;;;;;;6.77;3.23;;;;;;;;;;5098993;28;20204;-84
2024/01/13 06:20:50;;;;;;;6.50;5.17;;;;;;;;;;5098101;28;20224;-83
2024/01/13 06:23:21;;;;;;;8.37;3.43;;;;;;;;;;5097759;28;20737;-83
2024/01/13 06:25:59;;;;;;;10.73;4.47;;;;;;;;;;5096116;28;20245;-84
2024/01/13 06:28:28;;;;;;;6.97;3.50;;;;;;;;;;5097250;28;20215;-83
2024/01/13 06:31:00;;;;;;;6.17;3.10;;;;;;;;;;5097596;28;20251;-84
2024/01/13 06:33:30;;;;;;;5.40;3.90;;;;;;;;;;5097309;28;20190;-84
2024/01/13 06:35:59;;;;;;;4.23;3.83;;;;;;;;;;5111589;28;20188;-83
2024/01/13 06:38:48;;;;;;;9.20;4.60;;;;;;;;;;5112245;28;20263;-83
2024/01/13 06:41:18;;;;;;;7.07;4.37;;;;;;;;;;5112961;28;20185;-82
2024/01/13 06:43:46;;;;;;;11.27;4.13;;;;;;;;;;5118118;28;20274;-83
2024/01/13 06:46:24;;;;;;;3.57;3.27;;;;;;;;;;5115021;28;20308;-83
2024/01/13 06:48:54;;;;;;;5.73;3.90;;;;;;;;;;5112581;28;20212;-85
2024/01/13 06:51:23;;;;;;;4.33;2.60;;;;;;;;;;5118556;28;20586;-82
2024/01/13 06:53:53;;;;;;;7.93;3.47;;;;;;;;;;5115132;28;20213;-83
2024/01/13 06:56:21;;;;;;;3.70;3.27;;;;;;;;;;5108923;28;20831;-83
2024/01/13 06:58:50;;;;;;;11.47;3.90;;;;;;;;;;5104302;28;20218;-85
2024/01/13 07:01:19;;;;;;;3.13;2.70;;;;;;;;;;5109953;28;20289;-84
2024/01/13 07:03:47;;;;;;;10.43;4.23;;;;;;;;;;5106893;28;20205;-84
2024/01/13 07:06:15;;;;;;;6.77;3.40;;;;;;;;;;5107144;28;20249;-83
2024/01/13 07:08:43;;;;;;;6.90;4.80;;;;;;;;;;5109440;28;20847;-83
2024/01/13 07:11:13;;;;;;;13.77;6.47;;;;;;;;;;5106378;28;20223;-84
2024/01/13 07:13:45;;;;;;;5.13;4.33;;;;;;;;;;5111272;28;20260;-84
2024/01/13 07:16:13;;;;;;;8.27;4.90;;;;;;;;;;5112370;28;20201;-84
2024/01/13 07:18:45;;;;;;;4.60;3.67;;;;;;;;;;5104938;28;20204;-83
2024/01/13 07:21:14;;;;;;;4.10;3.43;;;;;;;;;;5115098;28;20265;-83
2024/01/13 07:23:48;;;;;;;4.30;3.90;;;;;;;;;;5094655;28;20289;-84
2024/01/13 07:26:16;;;;;;;3.50;3.27;;;;;;;;;;5111116;28;20324;-84
2024/01/13 07:28:42;;;;;;;3.73;3.43;;;;;;;;;;5114372;28;20642;-85
2024/01/13 07:31:12;;;;;;;7.33;4.27;;;;;;;;;;5113294;28;20205;-84
2024/01/13 07:33:39;;;;;;;4.07;3.00;;;;;;;;;;5115075;28;20193;-83
2024/01/13 07:36:09;;;;;;;11.97;5.90;;;;;;;;;;5114535;28;20197;-83
2024/01/13 07:38:37;;;;;;;9.03;4.47;;;;;;;;;;5115382;28;20231;-84
2024/01/13 07:41:04;;;;;;;8.03;4.73;;;;;;;;;;5116242;27;20282;-84
2024/01/13 07:43:31;;;;;;;12.83;6.33;;;;;;;;;;5115616;28;20317;-84
2024/01/13 07:45:59;;;;;;;20.57;6.03;;;;;;;;;;5105341;28;20222;-83
2024/01/13 07:48:27;;;;;;;13.27;6.50;;;;;;;;;;5097831;28;20194;-83
2024/01/13 07:50:54;;;;;;;7.13;3.63;;;;;;;;;;5097545;28;20178;-84
2024/01/13 07:53:26;;;;;;;5.93;4.57;;;;;;;;;;5108493;28;20401;-83
2024/01/13 07:55:54;;;;;;;7.13;4.97;;;;;;;;;;5115961;28;20193;-84
2024/01/13 07:58:21;;;;;;;4.37;3.57;;;;;;;;;;5103327;28;20241;-84
2024/01/13 08:00:48;;;;;;;6.67;3.63;;;;;;;;;;5095271;28;20201;-82
2024/01/13 08:03:15;;;;;;;3.73;2.83;;;;;;;;;;5095168;28;20209;-84
2024/01/13 08:05:43;;;;;;;4.27;3.27;;;;;;;;;;5093889;28;20242;-82
2024/01/13 08:08:11;;;;;;;10.57;4.73;;;;;;;;;;5094053;28;20271;-83
2024/01/13 08:10:40;;;;;;;5.73;3.20;;;;;;;;;;5093433;28;20198;-83
2024/01/13 08:13:10;;;;;;;10.70;5.23;;;;;;;;;;5093422;28;20679;-83
2024/01/13 08:15:37;;;;;;;13.30;5.47;;;;;;;;;;5093406;28;20186;-83
2024/01/13 08:18:12;;;;;;;9.20;4.63;;;;;;;;;;5092665;28;20265;-83
2024/01/13 08:20:48;;;;;;;6.50;3.63;;;;;;;;;;5093692;28;20193;-82
2024/01/13 08:23:39;;;;;;;8.90;3.67;;;;;;;;;;5093887;28;20233;-83
2024/01/13 08:26:14;;;;;;;4.10;2.70;;;;;;;;;;5083419;28;20225;-84
2024/01/13 08:28:50;;;;;;;9.00;4.33;;;;;;;;;;5093331;28;20865;-83
2024/01/13 08:31:17;;;;;;;4.23;3.50;;;;;;;;;;5094114;28;20208;-81
2024/01/13 08:33:44;;;;;;;7.63;4.10;;;;;;;;;;5094135;28;20205;-85
2024/01/13 08:36:12;;;;;;;7.37;3.43;;;;;;;;;;5093475;28;20200;-84
2024/01/13 08:38:43;;;;;;;4.93;2.87;;;;;;;;;;5093903;28;20209;-84
2024/01/13 08:41:13;;;;;;;3.93;2.47;;;;;;;;;;5092928;28;20194;-84
2024/01/13 08:43:42;;;;;;;3.40;1.77;;;;;;;;;;5094059;28;20201;-84
2024/01/13 08:46:10;;;;;;;6.80;3.53;;;;;;;;;;5093200;28;20221;-85
2024/01/13 08:48:38;;;;;;;7.33;4.53;;;;;;;;;;5095544;28;20194;-84
2024/01/13 08:51:06;;;;;;;5.53;4.37;;;;;;;;;;5096267;28;20243;-83
2024/01/13 08:53:33;;;;;;;9.07;3.60;;;;;;;;;;5094446;28;20206;-84
2024/01/13 08:56:08;;;;;;;2.60;2.40;;;;;;;;;;5098363;28;20215;-82
2024/01/13 08:58:37;;;;;;;7.07;3.50;;;;;;;;;;5094820;28;20276;-84
2024/01/13 09:01:04;;;;;;;7.93;2.87;;;;;;;;;;5094417;28;20255;-83
2024/01/13 09:03:32;;;;;;;4.13;3.67;;;;;;;;;;5109142;28;20220;-83
2024/01/13 09:06:00;;;;;;;3.97;3.57;;;;;;;;;;5113969;28;20735;-83
2024/01/13 09:08:31;;;;;;;10.30;4.07;;;;;;;;;;5113054;28;20217;-85
2024/01/13 09:11:06;;;;;;;10.80;4.57;;;;;;;;;;5113280;28;20193;-84
2024/01/13 09:13:34;;;;;;;8.00;4.43;;;;;;;;;;5113276;28;20726;-84
2024/01/13 09:16:14;;;;;;;6.33;3.93;;;;;;;;;;5112995;28;20204;-83
2024/01/13 09:18:43;;;;;;;2.23;2.10;;;;;;;;;;5093706;28;20218;-84
2024/01/13 09:21:21;;;;;;;7.90;3.83;;;;;;;;;;5098537;28;20258;-85
2024/01/13 09:24:03;;;;;;;7.80;2.80;;;;;;;;;;5112089;28;20587;-84
2024/01/13 09:26:31;;;;;;;6.37;3.83;;;;;;;;;;5113990;28;20286;-85
2024/01/13 09:29:04;;;;;;;4.33;3.30;;;;;;;;;;5112741;28;20201;-85
2024/01/13 09:31:38;;;;;;;6.13;2.97;;;;;;;;;;5112058;28;20209;-83
2024/01/13 09:34:07;;;;;;;1.83;1.73;;;;;;;;;;5112744;28;20238;-85
2024/01/13 09:36:38;;;;;;;6.73;3.87;;;;;;;;;;5113607;28;20197;-85
2024/01/13 09:39:05;;;;;;;5.93;1.97;;;;;;;;;;5114243;28;20197;-84
2024/01/13 09:41:34;;;;;;;7.13;3.30;;;;;;;;;;5093703;28;20218;-83
2024/01/13 09:44:03;;;;;;;5.53;4.37;;;;;;;;;;5108528;28;20205;-85
2024/01/13 09:46:31;;;;;;;3.70;2.97;;;;;;;;;;5113824;28;20225;-85
2024/01/13 09:49:03;;;;;;;6.03;4.57;;;;;;;;;;5113185;28;20197;-85
2024/01/13 09:51:31;;;;;;;10.67;4.33;;;;;;;;;;5112116;28;20220;-86
2024/01/13 09:54:01;;;;;;;14.73;4.17;;;;;;;;;;5111762;28;20237;-84
2024/01/13 09:56:37;;;;;;;8.63;3.77;;;;;;;;;;5112419;28;20205;-84
2024/01/13 09:59:07;;;;;;;7.90;4.80;;;;;;;;;;5112408;28;20193;-84
2024/01/13 10:01:38;;;;;;;4.60;3.67;;;;;;;;;;5112250;28;20202;-84
2024/01/13 10:04:10;;;;;;;6.47;4.33;;;;;;;;;;5111599;28;20197;-84
2024/01/13 10:06:38;;;;;;;7.73;5.30;;;;;;;;;;5111855;28;20216;-84
2024/01/13 10:09:10;;;;;;;4.37;3.97;;;;;;;;;;5110580;28;20229;-84
2024/01/13 10:11:48;;;;;;;4.87;3.47;;;;;;;;;;5111651;28;20246;-83
2024/01/13 10:14:18;;;;;;;5.70;3.87;;;;;;;;;;5111706;28;20223;-84
2024/01/13 10:16:48;;;;;;;3.50;3.17;;;;;;;;;;5111617;28;20215;-84
2024/01/13 10:19:18;;;;;;;3.43;3.23;;;;;;;;;;5112302;28;20270;-83
2024/01/13 10:21:47;;;;;;;6.47;3.57;;;;;;;;;;5112562;28;20247;-85
2024/01/13 10:24:15;;;;;;;7.63;5.30;;;;;;;;;;5111466;28;20232;-85
2024/01/13 10:26:43;;;;;;;6.60;4.40;;;;;;;;;;5116301;28;20253;-87
2024/01/13 10:29:11;;;;;;;12.20;5.63;;;;;;;;;;5116553;28;20205;-83
2024/01/13 10:31:39;;;;;;;11.43;5.27;;;;;;;;;;5117626;28;20622;-84
2024/01/13 10:34:16;;;;;;;5.20;4.07;;;;;;;;;;5120120;28;20208;-85
2024/01/13 10:36:51;;;;;;;7.03;4.37;;;;;;;;;;5117764;28;20201;-84
2024/01/13 10:39:20;;;;;;;9.37;3.93;;;;;;;;;;5116717;28;20242;-84
2024/01/13 10:41:52;;;;;;;8.33;5.13;;;;;;;;;;5118905;28;20189;-83
2024/01/13 10:44:24;;;;;;;7.27;4.90;;;;;;;;;;5119063;28;20197;-83
2024/01/13 10:46:53;;;;;;;4.57;4.13;;;;;;;;;;5120403;28;20255;-84
2024/01/13 10:49:28;;;;;;;6.13;3.90;;;;;;;;;;5117343;28;20228;-84
2024/01/13 10:51:58;;;;;;;8.73;4.43;;;;;;;;;;5116429;28;20208;-84
2024/01/13 10:54:26;;;;;;;8.23;3.80;;;;;;;;;;5115899;28;20196;-84
2024/01/13 10:56:54;;;;;;;8.90;4.03;;;;;;;;;;5115541;28;20209;-84
2024/01/13 10:59:24;;;;;;;5.33;4.23;;;;;;;;;;5114759;28;20206;-84
2024/01/13 11:01:53;;;;;;;4.07;3.23;;;;;;;;;;5116742;28;20194;-84
2024/01/13 11:04:23;;;;;;;9.27;3.80;;;;;;;;;;5117370;28;20293;-84
2024/01/13 11:06:50;;;;;;;13.33;5.53;;;;;;;;;;5116072;28;20247;-84
2024/01/13 11:09:24;;;;;;;11.03;4.67;;;;;;;;;;5116743;28;20283;-85
2024/01/13 11:12:11;;;;;;;8.60;3.13;;;;;;;;;;5116579;28;20640;-83
2024/01/13 11:14:44;;;;;;;8.43;4.43;;;;;;;;;;5115776;28;20201;-85
2024/01/13 11:17:14;;;;;;;4.90;2.53;;;;;;;;;;5116558;28;20192;-83
2024/01/13 11:19:45;;;;;;;6.90;3.33;;;;;;;;;;5115265;28;20189;-84
2024/01/13 11:22:28;;;;;;;5.47;3.23;;;;;;;;;;5116444;28;20240;-84
2024/01/13 11:24:58;;;;;;;6.97;4.63;;;;;;;;;;5113388;28;20204;-84
2024/01/13 11:27:26;;;;;;;6.70;3.37;;;;;;;;;;5114333;28;20228;-84
2024/01/13 11:29:56;;;;;;;5.93;4.47;;;;;;;;;;5112188;28;20193;-85
2024/01/13 11:32:28;;;;;;;9.77;4.03;;;;;;;;;;5115723;28;20197;-86
2024/01/13 11:35:01;;;;;;;6.37;4.80;;;;;;;;;;5117167;28;20201;-84
2024/01/13 11:37:32;;;;;;;10.43;4.37;;;;;;;;;;5116697;28;20208;-85
2024/01/13 11:40:09;;;;;;;6.73;4.80;;;;;;;;;;5126446;28;20217;-84
2024/01/13 11:42:42;;;;;;;10.03;6.50;;;;;;;;;;5126933;28;20197;-84
2024/01/13 11:45:11;;;;;;;8.00;5.20;;;;;;;;;;5106961;28;20193;-86
2024/01/13 11:47:38;;;;;;;9.43;5.23;;;;;;;;;;5115472;28;20277;-86
2024/01/13 11:50:33;;;;;;;5.80;3.87;;;;;;;;;;5115436;28;20256;-84
2024/01/13 11:53:03;;;;;;;7.07;4.57;;;;;;;;;;5119652;27;20261;-84
2024/01/13 11:58:47;;;;;;;6.23;3.60;;;;;;;;;;5098137;28;20205;-85
2024/01/13 12:01:14;;;;;;;7.97;5.13;;;;;;;;;;5116828;28;20196;-85
2024/01/13 12:03:49;;;;;;;6.17;2.97;;;;;;;;;;5118305;28;20217;-84
2024/01/13 12:06:17;;;;;;;10.77;5.60;;;;;;;;;;5127687;28;20448;-84
2024/01/13 12:08:57;;;;;;;5.93;4.60;;;;;;;;;;5136462;28;20225;-85
2024/01/13 12:11:27;;;;;;;10.87;4.27;;;;;;;;;;5119378;28;20200;-85
2024/01/13 12:13:56;;;;;;;8.53;4.60;;;;;;;;;;5105518;28;20358;-85
2024/01/13 12:16:24;;;;;;;5.43;3.73;;;;;;;;;;5111235;28;20399;-84
2024/01/13 12:18:55;;;;;;;8.33;4.30;;;;;;;;;;5102703;28;20229;-85
2024/01/13 12:21:22;;;;;;;6.73;4.33;;;;;;;;;;5107492;28;20237;-84
2024/01/13 12:23:50;;;;;;;6.97;4.47;;;;;;;;;;5057464;28;20231;-84
2024/01/13 12:26:18;;;;;;;7.40;4.67;;;;;;;;;;5057588;28;20234;-84
2024/01/13 12:28:46;;;;;;;6.60;3.67;;;;;;;;;;5059180;28;20239;-83
2024/01/13 12:31:14;;;;;;;9.33;4.33;;;;;;;;;;5072251;28;20455;-85
2024/01/13 12:33:41;;;;;;;6.73;3.67;;;;;;;;;;5070798;28;20303;-83
2024/01/13 12:36:16;;;;;;;13.60;3.83;;;;;;;;;;5063725;28;20223;-84
2024/01/13 12:38:44;;;;;;;7.23;3.37;;;;;;;;;;5067206;28;20234;-85
2024/01/13 12:41:11;;;;;;;7.73;4.17;;;;;;;;;;5071241;28;20631;-85
2024/01/13 12:43:43;;;;;;;7.67;3.07;;;;;;;;;;5051414;28;20306;-84
2024/01/13 12:46:23;;;;;;;20.57;5.57;;;;;;;;;;5060055;28;20250;-85
2024/01/13 12:48:55;;;;;;;6.87;3.80;;;;;;;;;;5059323;28;20235;-83
2024/01/13 12:51:25;;;;;;;4.70;3.60;;;;;;;;;;5072810;28;20222;-84
2024/01/13 12:53:57;;;;;;;11.07;4.43;;;;;;;;;;5065088;28;20317;-84
2024/01/13 12:56:47;;;;;;;5.50;2.93;;;;;;;;;;5054940;28;20262;-84
2024/01/13 12:59:31;;;;;;;11.77;4.80;;;;;;;;;;5053665;28;20343;-84
2024/01/13 13:02:06;;;;;;;13.33;4.93;;;;;;;;;;5052000;28;20254;-84
2024/01/13 13:04:38;;;;;;;17.53;4.33;;;;;;;;;;5051039;28;20249;-83
2024/01/13 13:07:12;;;;;;;4.27;3.67;;;;;;;;;;5051462;28;20241;-84
2024/01/13 13:09:44;;;;;;;4.50;4.07;;;;;;;;;;5051153;28;20306;-85
2024/01/13 13:12:14;;;;;;;9.20;4.07;;;;;;;;;;5052528;28;20230;-84
2024/01/13 13:14:45;;;;;;;5.47;3.90;;;;;;;;;;5050851;28;20680;-85
2024/01/13 13:17:15;;;;;;;8.27;5.13;;;;;;;;;;5050815;28;20223;-84
2024/01/13 13:20:11;;;;;;;6.90;3.70;;;;;;;;;;5050266;28;20223;-84
2024/01/13 13:23:00;;;;;;;12.20;4.57;;;;;;;;;;5069013;28;20251;-82
2024/01/13 13:25:39;;;;;;;;;;;;;;;;;;;;;
2024/01/13 13:28:35;;;;;;;8.50;4.50;;;;;;;;;;5103593;28;20230;-84
2024/01/13 13:31:25;;;;;;;10.40;3.43;;;;;;;;;;5093071;28;20197;-83
2024/01/13 13:33:59;;;;;;;7.47;3.60;;;;;;;;;;5092546;28;20252;-85
2024/01/13 13:36:36;;;;;;;4.33;3.23;;;;;;;;;;5094506;28;20213;-84
2024/01/13 13:39:10;;;;;;;5.57;4.53;;;;;;;;;;5095345;28;20204;-85
2024/01/13 13:41:41;;;;;;;5.90;3.67;;;;;;;;;;5095396;28;20280;-84
2024/01/13 13:44:15;;;;;;;7.27;5.03;;;;;;;;;;5093159;28;20673;-83
2024/01/13 13:46:44;;;;;;;12.30;4.03;;;;;;;;;;5093018;28;20225;-84
2024/01/13 13:49:19;;;;;;;5.10;3.90;;;;;;;;;;5093835;28;20198;-84
2024/01/13 13:51:54;;;;;;;3.70;2.90;;;;;;;;;;5094059;28;20272;-84
2024/01/13 13:54:24;;;;;;;9.80;4.77;;;;;;;;;;5093319;28;20287;-85
2024/01/13 13:56:57;;;;;;;24.33;2.10;;;;;;;;;;5093101;28;20194;-85
2024/01/13 13:59:29;;;;;;;8.27;4.63;;;;;;;;;;5096376;28;20201;-84
2024/01/13 14:01:58;;;;;;;6.10;4.17;;;;;;;;;;5095391;28;20293;-84
2024/01/13 14:04:31;;;;;;;5.13;3.70;;;;;;;;;;5097403;28;20258;-84
2024/01/13 14:07:01;;;;;;;6.40;3.23;;;;;;;;;;5108872;28;20225;-84
2024/01/13 14:09:35;;;;;;;5.20;3.77;;;;;;;;;;5116120;28;20194;-83
2024/01/13 14:12:03;;;;;;;4.43;2.87;;;;;;;;;;5098692;28;20209;-84
2024/01/13 14:14:33;;;;;;;13.23;4.27;;;;;;;;;;5104170;28;20281;-83
2024/01/13 14:17:01;;;;;;;4.53;3.40;;;;;;;;;;5098223;28;20224;-83
2024/01/13 14:19:37;;;;;;;6.07;4.30;;;;;;;;;;5097339;28;20232;-84
2024/01/13 14:22:10;;;;;;;6.83;2.97;;;;;;;;;;5098951;28;20236;-83
2024/01/13 14:24:39;;;;;;;2.60;2.40;;;;;;;;;;5097397;28;20284;-84
2024/01/13 14:27:09;;;;;;;4.07;3.33;;;;;;;;;;5098896;28;20253;-85
2024/01/13 14:29:39;;;;;;;8.37;3.90;;;;;;;;;;5096939;28;20212;-84
2024/01/13 14:32:10;;;;;;;8.23;2.83;;;;;;;;;;5098242;28;20208;-84
2024/01/13 14:34:44;;;;;;;3.37;3.07;;;;;;;;;;5096825;28;20727;-84
2024/01/13 14:37:18;;;;;;;6.00;3.73;;;;;;;;;;5107592;28;20215;-85
2024/01/13 14:39:56;;;;;;;4.37;3.57;;;;;;;;;;5102874;28;20198;-85
2024/01/13 14:45:24;;;;;;;6.27;3.53;;;;;;;;;;5054813;28;20203;-85
2024/01/13 14:47:56;;;;;;;4.50;2.77;;;;;;;;;;5081354;28;20636;-83
2024/01/13 14:50:42;;;;;;;;;;;;;;;;;;;;;
2024/01/13 14:53:34;;;;;;;8.17;4.53;;;;;;;;;;5102266;28;20189;-82
2024/01/13 14:56:18;;;;;;;10.50;4.57;;;;;;;;;;5108898;28;20206;-83
2024/01/13 15:01:53;;;;;;;5.03;4.40;;;;;;;;;;5095710;28;20213;-84
2024/01/13 15:04:26;;;;;;;6.23;3.67;;;;;;;;;;5097105;28;20225;-83
2024/01/13 15:06:57;;;;;;;5.73;3.97;;;;;;;;;;5097610;28;20227;-84
2024/01/13 15:09:29;;;;;;;6.30;4.33;;;;;;;;;;5097430;28;20221;-83
2024/01/13 15:12:16;;;;;;;8.43;3.87;;;;;;;;;;5093291;28;20274;-82
2024/01/13 15:14:46;;;;;;;4.63;3.53;;;;;;;;;;5096480;28;20232;-83
2024/01/13 15:17:16;;;;;;;7.87;4.23;;;;;;;;;;5116096;28;20205;-84
2024/01/13 15:19:44;;;;;;;4.50;3.70;;;;;;;;;;5115596;28;20322;-84